Time;durP1;ratioP1;P1;durP2;ratioP2;P2;SDS_P1;SDS_P2;PMS_P1;PMS_P2;Temp;Humidity;BMP_temperature;BMP_pressure;BME280_temperature;BME280_humidity;BME280_pressure;Samples;Min_cycle;Max_cycle;Signal;HPM_P1;HPM_P2
2022/01/30 03:42:31;;;;;;;5.65;2.28;;;;;;;16.69;56.91;102877.38;5038019;28;20077;-83
2022/01/30 03:45:29;;;;;;;7.57;2.40;;;;;;;16.69;57.09;102882.56;4967665;28;20056;-83
2022/01/30 05:08:23;;;;;;;5.53;1.98;;;;;;;16.65;56.05;102907.59;4193728;26;20045;-82
2022/01/30 05:18:03;;;;;;;7.35;2.40;;;;;;;16.65;56.16;102902.41;5038333;28;20068;-83
2022/01/30 05:24:31;;;;;;;7.40;2.55;;;;;;;16.65;56.06;102900.69;5036975;28;20446;-83
2022/01/30 05:27:23;;;;;;;7.20;2.45;;;;;;;16.66;55.99;102927.56;5013369;28;20057;-83
2022/01/30 05:47:02;;;;;;;5.53;2.30;;;;;;;16.64;55.70;102969.13;5038394;28;20064;-83
2022/01/30 06:00:41;;;;;;;5.15;2.10;;;;;;;16.64;55.56;102997.72;5044775;28;20049;-83
2022/01/30 06:49:48;;;;;;;11.23;4.25;;;;;;;16.75;54.95;103042.22;2985151;26;20081;-82
2022/01/30 06:52:28;;;;;;;13.45;4.55;;;;;;;16.74;55.10;103037.84;5023440;28;20041;-82
2022/01/30 06:55:16;;;;;;;14.20;3.72;;;;;;;16.73;55.22;103032.63;5017725;28;20049;-84
2022/01/30 06:58:06;;;;;;;11.70;3.88;;;;;;;16.72;55.32;103028.25;5013773;28;20030;-81
2022/01/30 07:00:54;;;;;;;9.13;3.47;;;;;;;16.70;55.22;103040.31;5008478;28;20049;-84
2022/01/30 07:03:28;;;;;;;9.18;3.03;;;;;;;16.68;55.25;103053.28;4991580;28;20120;-80
2022/01/30 07:05:58;;;;;;;9.23;3.38;;;;;;;16.68;55.33;103061.09;5017079;28;20077;-82
2022/01/30 07:08:25;;;;;;;9.15;3.50;;;;;;;16.69;55.22;103069.75;5018662;28;20086;-82
2022/01/30 07:10:51;;;;;;;9.13;3.28;;;;;;;16.67;55.33;103070.59;4999786;28;20022;-80
2022/01/30 07:13:17;;;;;;;8.85;2.90;;;;;;;16.71;55.44;103073.28;4980229;28;20073;-81
2022/01/30 07:15:45;;;;;;;13.32;3.22;;;;;;;16.71;55.08;103083.69;5005055;28;20034;-79
2022/01/30 07:18:13;;;;;;;8.77;2.67;;;;;;;16.71;55.25;103086.28;4989518;28;20038;-79
2022/01/30 07:20:38;;;;;;;8.75;2.67;;;;;;;16.73;55.21;103088.09;4987257;28;20129;-79
2022/01/30 07:23:07;;;;;;;10.68;2.88;;;;;;;16.74;55.56;103097.66;4984748;28;20050;-81
2022/01/30 07:25:33;;;;;;;9.50;2.75;;;;;;;16.75;55.09;103098.56;5001262;28;20432;-79
2022/01/30 07:27:58;;;;;;;9.63;3.03;;;;;;;16.75;55.18;103091.63;4985890;28;20030;-79
2022/01/30 07:30:24;;;;;;;10.65;3.35;;;;;;;16.75;55.25;103094.22;5000770;28;20034;-80
2022/01/30 07:32:49;;;;;;;6.32;2.50;;;;;;;16.76;55.25;103098.56;4984183;28;20026;-81
2022/01/30 07:35:16;;;;;;;8.00;2.78;;;;;;;16.77;55.09;103099.47;4984292;28;20057;-79
2022/01/30 07:37:44;;;;;;;9.63;3.00;;;;;;;16.78;55.06;103085.63;4984501;28;20041;-79
2022/01/30 07:48:40;;;;;;;7.60;2.80;;;;;;;16.82;54.80;103077.13;5368297;23;20062;-84
2022/01/30 07:58:15;;;;;;;7.45;3.00;;;;;;;16.87;54.97;103075.53;4997166;28;20460;-84
2022/01/30 08:01:15;;;;;;;9.10;3.00;;;;;;;16.89;54.72;103078.19;4996059;28;20050;-85
2022/01/30 09:24:12;;;;;;;11.80;3.05;;;;;;;17.11;54.64;103142.97;5779757;23;20025;31
2022/01/30 09:26:38;;;;;;;10.27;2.83;;;;;;;17.15;55.42;103141.34;5075965;23;20083;-82
2022/01/30 09:29:03;;;;;;;9.40;2.63;;;;;;;17.31;56.04;103147.88;4978113;28;20027;-83
2022/01/30 09:40:31;;;;;;;8.13;2.55;;;;;;;17.30;54.91;103149.59;5177463;23;20069;-83
2022/01/30 09:42:59;;;;;;;10.10;2.60;;;;;;;17.31;55.08;103161.78;5001964;28;20054;-84
2022/01/30 09:48:00;;;;;;;7.80;2.40;;;;;;;17.30;54.83;103166.94;5049354;23;20077;-83
2022/01/30 09:50:28;;;;;;;8.40;2.47;;;;;;;17.28;54.92;103162.56;5002128;28;20034;-83
2022/01/30 09:52:56;;;;;;;7.47;2.40;;;;;;;17.29;54.69;103166.06;5018784;28;20017;-83
2022/01/30 09:55:22;;;;;;;7.88;2.55;;;;;;;17.30;54.93;103156.53;5001765;28;20100;-82
2022/01/30 09:57:48;;;;;;;7.15;2.22;;;;;;;17.30;54.61;103169.56;5001719;28;20034;-82
2022/01/30 10:00:15;;;;;;;6.57;2.45;;;;;;;17.33;54.66;103170.50;5001097;28;20022;-83
2022/01/30 10:02:42;;;;;;;6.80;2.55;;;;;;;17.36;54.65;103172.34;5000737;28;20045;-83
2022/01/30 10:05:10;;;;;;;6.68;2.65;;;;;;;17.37;54.74;103168.88;4996722;28;20082;-82
2022/01/30 10:07:50;;;;;;;6.60;2.22;;;;;;;17.36;54.60;103172.34;4995269;28;20080;-79
2022/01/30 10:10:18;;;;;;;8.70;2.50;;;;;;;17.35;54.60;103173.16;4983980;28;20022;-78
2022/01/30 10:13:04;;;;;;;8.63;2.63;;;;;;;17.32;54.75;103186.09;4966825;28;20124;-78
2022/01/30 10:15:30;;;;;;;7.05;2.60;;;;;;;17.28;54.83;103192.91;4982243;28;20113;-79
2022/01/30 10:17:56;;;;;;;7.80;2.33;;;;;;;17.29;54.72;103189.50;4951304;28;20030;-80
2022/01/30 10:20:25;;;;;;;6.95;2.30;;;;;;;17.30;54.94;103190.38;4968183;28;20037;-79
2022/01/30 10:22:59;;;;;;;9.32;2.92;;;;;;;17.29;54.92;103189.50;4983112;28;20034;-79
2022/01/30 10:25:30;;;;;;;9.13;2.88;;;;;;;17.29;54.82;103189.50;4982839;28;20042;-79
2022/01/30 10:28:17;;;;;;;10.95;2.90;;;;;;;17.25;55.20;103187.63;4986228;28;20029;-79
2022/01/30 10:30:59;;;;;;;11.52;3.10;;;;;;;17.24;55.15;103189.31;4984044;28;20062;-79
2022/01/30 10:33:45;;;;;;;6.70;2.42;;;;;;;17.23;54.98;103198.00;5001781;28;20081;-79
2022/01/30 10:36:12;;;;;;;10.23;2.75;;;;;;;17.21;55.04;103189.25;5005599;28;20019;-79
2022/01/30 10:38:48;;;;;;;8.60;2.80;;;;;;;17.22;55.19;103197.94;4987490;28;20432;-79
2022/01/30 10:41:20;;;;;;;15.07;3.10;;;;;;;17.21;55.36;103190.97;4987917;28;20030;-79
2022/01/30 10:43:51;;;;;;;7.93;2.53;;;;;;;17.20;55.29;103182.31;5007170;28;20018;-79
2022/01/30 10:46:26;;;;;;;8.82;2.72;;;;;;;17.20;55.40;103186.59;5005510;28;20085;-79
2022/01/30 10:48:54;;;;;;;6.70;2.45;;;;;;;17.20;55.42;103182.31;4989580;28;20033;-79
2022/01/30 10:51:20;;;;;;;7.57;2.75;;;;;;;17.21;55.39;103190.97;5008620;28;20412;-79
2022/01/30 10:53:50;;;;;;;11.05;3.00;;;;;;;17.22;55.68;103184.94;4990849;28;20018;-79
2022/01/30 10:56:20;;;;;;;11.38;3.00;;;;;;;17.20;55.51;103197.91;4993953;28;20026;-78
2022/01/30 10:59:13;;;;;;;9.38;2.65;;;;;;;17.21;55.51;103209.19;4982205;28;20030;-79
2022/01/30 11:01:42;;;;;;;6.68;2.35;;;;;;;17.20;55.48;103202.22;5001806;28;20134;-81
2022/01/30 11:04:26;;;;;;;9.60;2.90;;;;;;;17.19;55.45;103197.84;4992530;28;20022;-79
2022/01/30 11:06:53;;;;;;;10.25;2.88;;;;;;;17.19;55.43;103203.06;4994191;28;20037;-80
2022/01/30 11:09:24;;;;;;;8.82;3.05;;;;;;;17.19;55.54;103203.06;4995443;28;20027;-80
2022/01/30 11:11:56;;;;;;;7.93;2.58;;;;;;;17.20;55.57;103207.41;4996265;28;20026;-79
2022/01/30 11:14:34;;;;;;;7.75;2.75;;;;;;;17.22;55.42;103205.75;4983902;28;20098;-78
2022/01/30 11:17:06;;;;;;;7.72;2.95;;;;;;;17.24;55.23;103212.75;4980831;28;20035;-79
2022/01/30 11:19:34;;;;;;;8.77;3.03;;;;;;;17.23;55.73;103213.59;4978262;28;20030;-79
2022/01/30 11:22:03;;;;;;;8.75;2.92;;;;;;;17.23;55.29;103205.78;4991510;28;20034;-80
2022/01/30 11:24:33;;;;;;;9.70;2.67;;;;;;;17.23;55.48;103210.13;4990114;28;20030;-78
2022/01/30 11:26:59;;;;;;;9.07;2.75;;;;;;;17.22;55.56;103206.66;4989485;28;20034;-78
2022/01/30 11:29:24;;;;;;;10.68;3.03;;;;;;;17.22;55.44;103205.75;4972884;28;20022;-79
2022/01/30 11:31:50;;;;;;;11.77;3.40;;;;;;;17.23;55.76;103208.41;4985779;28;20018;-78
2022/01/30 11:34:24;;;;;;;8.57;2.80;;;;;;;17.21;55.54;103202.25;4973596;28;20018;-80
2022/01/30 11:36:53;;;;;;;8.60;2.90;;;;;;;17.21;55.43;103206.59;5014804;28;20011;-84
2022/01/30 11:44:27;;;;;;;9.82;2.75;;;;;;;17.18;55.36;103196.97;5015159;28;20389;-83
2022/01/30 11:47:19;;;;;;;8.57;2.50;;;;;;;17.19;55.35;103196.13;5002106;28;20089;-82
2022/01/30 11:53:13;;;;;;;9.88;3.42;;;;;;;17.20;55.26;103170.97;5043478;23;20174;-81
2022/01/30 11:55:53;;;;;;;8.40;3.08;;;;;;;17.20;55.35;103184.00;5017814;28;20095;-82
2022/01/30 12:00:51;;;;;;;9.63;2.95;;;;;;;17.23;55.30;103174.56;4997825;28;20027;-82
2022/01/30 12:03:29;;;;;;;12.43;3.00;;;;;;;17.26;55.29;103178.97;4997807;28;20127;-81
2022/01/30 12:11:31;;;;;;;9.20;2.95;;;;;;;17.28;55.12;103172.97;5479611;23;20058;-82
2022/01/30 12:14:01;;;;;;;9.73;3.05;;;;;;;17.28;55.28;103166.91;5019591;28;20022;-82
2022/01/30 12:17:05;;;;;;;9.98;3.03;;;;;;;17.28;55.36;103167.78;5016995;28;20062;-82
2022/01/30 12:19:30;;;;;;;8.55;2.92;;;;;;;17.27;55.36;103165.16;5012833;28;20040;-81
2022/01/30 12:22:01;;;;;;;8.48;2.90;;;;;;;17.26;55.43;103156.44;5017182;28;20018;-82
2022/01/30 12:24:32;;;;;;;10.70;2.90;;;;;;;17.28;55.41;103161.69;5017561;28;20061;-82
2022/01/30 12:27:02;;;;;;;9.02;3.03;;;;;;;17.27;55.22;103153.00;5018775;28;20023;-82
2022/01/30 12:29:39;;;;;;;9.63;3.38;;;;;;;17.27;55.22;103155.59;5017257;28;20011;-81
2022/01/30 12:32:20;;;;;;;10.75;3.08;;;;;;;17.30;55.41;103156.53;5018471;28;20035;-82
2022/01/30 12:34:46;;;;;;;7.90;2.88;;;;;;;17.28;55.16;103141.75;5018280;28;20034;-81
2022/01/30 12:37:19;;;;;;;10.07;3.15;;;;;;;17.28;55.39;103146.06;5016736;28;20041;-81
2022/01/30 12:39:45;;;;;;;9.07;2.95;;;;;;;17.28;55.27;103141.75;5016021;28;20027;-81
2022/01/30 12:42:17;;;;;;;9.00;2.97;;;;;;;17.28;55.19;103146.94;5012443;28;20119;-81
2022/01/30 12:44:47;;;;;;;9.23;3.35;;;;;;;17.27;55.14;103136.53;5015413;28;20030;-81
2022/01/30 12:47:14;;;;;;;12.40;3.40;;;;;;;17.25;55.11;103136.47;5011800;28;20026;-82
2022/01/30 12:50:09;;;;;;;10.82;2.88;;;;;;;17.27;55.38;103126.13;5012746;28;20046;-82
2022/01/30 12:52:37;;;;;;;8.60;3.00;;;;;;;17.27;55.17;103110.50;4964958;29;20035;-81
2022/01/30 12:55:49;;;;;;;7.30;3.28;;;;;;;17.28;55.28;103104.44;4929585;29;20044;-82
2022/01/30 13:01:51;;;;;;;12.82;3.08;;;;;;;17.31;55.15;103104.53;4883958;29;20050;-83
2022/01/30 13:04:40;;;;;;;7.03;3.00;;;;;;;17.33;55.09;103097.63;4864629;29;20050;-83
2022/01/30 13:10:39;;;;;;;9.10;2.97;;;;;;;17.30;55.34;103088.88;4881473;29;20044;-84
2022/01/30 13:17:18;;;;;;;12.82;3.35;;;;;;;17.31;55.26;103085.41;4860189;29;20087;-82
2022/01/30 13:20:29;;;;;;;9.88;2.92;;;;;;;17.32;55.26;103074.19;4881441;29;20089;-83
2022/01/30 13:23:06;;;;;;;9.45;2.97;;;;;;;17.28;55.13;103068.88;4867359;29;20029;-82
2022/01/30 13:29:27;;;;;;;7.57;2.97;;;;;;;17.28;55.05;103057.59;4881520;29;20044;-83
2022/01/30 13:32:15;;;;;;;7.10;2.83;;;;;;;17.29;55.19;103061.97;4870655;29;20045;-84
2022/01/30 13:38:25;;;;;;;10.15;2.90;;;;;;;17.27;54.89;103050.66;5413410;23;20061;-80
2022/01/30 13:40:58;;;;;;;9.95;3.20;;;;;;;17.27;55.13;103059.31;5011464;28;20006;-80
2022/01/30 13:43:28;;;;;;;7.95;3.25;;;;;;;17.27;55.11;103055.84;4985421;28;20101;-79
2022/01/30 14:04:46;;;;;;;10.30;3.47;;;;;;;17.33;53.68;103029.97;6053698;23;20023;-81
2022/01/30 14:36:34;;;;;;;9.00;3.45;;;;;;;17.37;52.84;102984.97;6077344;23;20021;-81
2022/01/30 14:39:00;;;;;;;8.25;2.97;;;;;;;17.36;52.73;102974.53;5839846;23;20058;-83
2022/01/30 14:41:33;;;;;;;10.50;3.40;;;;;;;17.38;52.72;102988.47;5023818;28;20037;-84
2022/01/30 14:44:02;;;;;;;9.80;3.55;;;;;;;17.36;52.70;102979.75;5023244;28;20019;-84
2022/01/30 14:46:27;;;;;;;12.07;3.38;;;;;;;17.34;52.69;102963.19;5040962;28;20029;-84
2022/01/30 14:48:53;;;;;;;9.43;3.03;;;;;;;17.33;53.03;102959.69;5040620;28;20030;-84
2022/01/30 14:53:54;;;;;;;9.98;3.20;;;;;;;17.33;52.71;102956.22;5620024;23;20042;-86
2022/01/30 14:56:20;;;;;;;10.20;2.97;;;;;;;17.32;52.69;102957.94;5019896;28;20029;-85
2022/01/30 14:58:46;;;;;;;7.00;2.80;;;;;;;17.34;52.78;102945.84;5853223;23;20021;-81
2022/01/30 15:11:05;;;;;;;9.80;2.88;;;;;;;17.39;52.52;102922.53;5938375;23;20045;-83
2022/01/30 15:34:15;;;;;;;8.45;2.72;;;;;;;17.43;52.44;102870.59;6041673;23;20001;-82
2022/01/30 15:39:18;;;;;;;6.68;2.63;;;;;;;17.46;52.17;102851.56;5069851;23;20058;-80
2022/01/30 15:41:43;;;;;;;7.85;2.60;;;;;;;17.44;52.42;102851.56;4967411;28;20034;-80
2022/01/30 15:44:13;;;;;;;6.90;2.42;;;;;;;17.44;52.56;102840.25;5000039;28;20031;-80
2022/01/30 15:49:23;;;;;;;12.68;3.33;;;;;;;17.47;53.04;102835.13;4998769;28;20114;-79
2022/01/30 15:51:48;;;;;;;10.82;3.60;;;;;;;17.52;53.15;102830.00;4965080;28;20062;-80
2022/01/30 15:54:14;;;;;;;12.35;3.00;;;;;;;17.56;53.38;102830.13;4980534;28;20018;-79
2022/01/30 15:56:41;;;;;;;9.57;2.83;;;;;;;17.57;53.36;102820.56;4997782;28;20116;-77
2022/01/30 15:59:07;;;;;;;8.50;2.85;;;;;;;17.54;53.26;102813.59;4997599;28;20047;-77
2022/01/30 16:01:33;;;;;;;7.68;2.50;;;;;;;17.53;52.85;102803.13;4997207;28;20018;-78
2022/01/30 16:04:00;;;;;;;6.13;2.50;;;;;;;17.54;52.71;102804.91;4997141;28;20090;-78
2022/01/30 16:06:28;;;;;;;8.77;2.92;;;;;;;17.52;52.78;102798.78;4996391;28;20022;-78
2022/01/30 16:09:08;;;;;;;9.07;2.80;;;;;;;17.47;52.75;102791.75;4980817;28;20513;-78
2022/01/30 16:17:04;;;;;;;10.65;3.03;;;;;;;17.42;52.67;102795.97;4997698;28;20085;-78
2022/01/30 16:19:31;;;;;;;8.02;2.78;;;;;;;17.40;52.64;102792.47;4963989;28;20027;-78
2022/01/30 16:21:56;;;;;;;6.82;2.60;;;;;;;17.41;52.64;102782.91;4996124;28;20022;-78
2022/01/30 16:24:22;;;;;;;11.63;3.30;;;;;;;17.40;52.50;102773.38;4998192;28;20058;-78
2022/01/30 16:26:47;;;;;;;8.82;2.53;;;;;;;17.40;52.43;102771.63;4980395;28;20080;-78
2022/01/30 16:29:13;;;;;;;7.85;2.63;;;;;;;17.40;52.53;102769.03;4999019;28;20070;-79
2022/01/30 16:31:38;;;;;;;6.18;2.47;;;;;;;17.38;52.74;102752.50;4997104;28;20030;-79
2022/01/30 16:34:04;;;;;;;8.45;2.72;;;;;;;17.38;52.65;102749.03;4998700;28;20019;-79
2022/01/30 16:36:30;;;;;;;7.15;2.78;;;;;;;17.39;52.63;102745.56;4998127;28;20081;-78
2022/01/30 16:38:57;;;;;;;5.80;2.20;;;;;;;17.39;52.47;102748.19;4981176;28;20086;-78
2022/01/30 16:41:23;;;;;;;8.23;2.30;;;;;;;17.39;52.74;102743.84;4961356;28;20046;-78
2022/01/30 16:43:56;;;;;;;6.88;2.40;;;;;;;17.39;52.87;102732.56;4945090;28;20393;-78
2022/01/30 16:49:00;;;;;;;6.65;2.45;;;;;;;17.40;52.73;102724.78;4978672;28;20035;-78
2022/01/30 16:51:27;;;;;;;10.60;2.80;;;;;;;17.43;52.99;102718.78;4977328;28;20042;-78
2022/01/30 16:53:52;;;;;;;8.43;2.75;;;;;;;17.42;53.05;102724.81;4965278;28;20035;-79
2022/01/30 16:56:19;;;;;;;8.43;2.92;;;;;;;17.41;53.30;102723.94;4982443;28;20061;-79
2022/01/30 16:58:45;;;;;;;7.13;2.35;;;;;;;17.40;53.28;102730.00;4966812;28;20031;-80
2022/01/30 17:01:10;;;;;;;7.20;2.45;;;;;;;17.40;53.52;102724.78;4978472;28;20030;-79
2022/01/30 17:03:39;;;;;;;6.93;2.58;;;;;;;17.41;53.65;102713.53;4946307;28;20046;-79
2022/01/30 17:06:06;;;;;;;8.10;2.60;;;;;;;17.42;53.62;102701.38;4978475;28;20030;-79
2022/01/30 17:08:31;;;;;;;8.43;2.05;;;;;;;17.40;53.51;102703.97;4978947;28;20027;-79
2022/01/30 17:11:01;;;;;;;6.70;2.70;;;;;;;17.40;53.56;102705.72;4981002;28;20109;-79
2022/01/30 17:13:26;;;;;;;6.75;2.40;;;;;;;17.39;53.58;102699.59;4951135;28;20428;-79
2022/01/30 17:15:54;;;;;;;6.63;2.22;;;;;;;17.39;53.94;102697.00;4979285;28;20037;-79
2022/01/30 17:18:20;;;;;;;7.93;2.47;;;;;;;17.38;53.95;102697.00;4979011;28;20038;-79
2022/01/30 17:20:48;;;;;;;5.97;2.42;;;;;;;17.38;54.02;102695.25;4977930;28;20480;-79
2022/01/30 17:23:14;;;;;;;7.18;2.40;;;;;;;17.38;53.97;102690.06;4977451;28;20023;-80
2022/01/30 17:25:44;;;;;;;6.75;2.20;;;;;;;17.38;54.08;102689.19;4977255;28;20018;-80
2022/01/30 17:28:10;;;;;;;9.15;2.88;;;;;;;17.38;54.03;102695.25;4977231;28;20059;-77
2022/01/30 17:30:36;;;;;;;6.72;2.28;;;;;;;17.38;54.18;102687.44;4961352;28;20034;-78
2022/01/30 17:33:02;;;;;;;4.88;2.22;;;;;;;17.38;54.27;102678.78;4960412;28;20026;-78
2022/01/30 17:35:32;;;;;;;11.45;2.45;;;;;;;17.38;54.38;102684.84;4975427;28;20027;-78
2022/01/30 17:37:58;;;;;;;6.57;2.75;;;;;;;17.39;54.32;102672.72;4977567;28;20051;-78
2022/01/30 17:40:25;;;;;;;7.88;2.53;;;;;;;17.39;54.33;102664.91;4959825;28;20034;-78
2022/01/30 17:42:51;;;;;;;6.20;2.20;;;;;;;17.37;54.58;102659.66;4976588;28;20042;-78
2022/01/30 17:45:21;;;;;;;7.25;2.53;;;;;;;17.37;54.40;102656.19;4975428;28;20029;-78
2022/01/30 17:47:47;;;;;;;7.43;2.47;;;;;;;17.38;54.74;102660.56;4959429;28;20130;-78
2022/01/30 17:50:15;;;;;;;6.53;2.20;;;;;;;17.38;54.82;102655.34;4959701;28;20133;-77
2022/01/30 17:52:42;;;;;;;5.55;2.33;;;;;;;17.37;54.70;102657.03;4975702;28;20027;-78
2022/01/30 17:55:08;;;;;;;6.72;2.72;;;;;;;17.38;54.74;102666.63;4959822;28;20363;-77
2022/01/30 17:57:36;;;;;;;6.18;2.42;;;;;;;17.38;54.85;102665.75;4975185;28;20540;-77
2022/01/30 18:00:03;;;;;;;8.27;2.25;;;;;;;17.38;55.04;102671.84;4975457;28;20065;-77
2022/01/30 18:02:28;;;;;;;5.90;2.33;;;;;;;17.37;54.80;102670.06;4976092;28;20033;-78
2022/01/30 18:04:54;;;;;;;6.82;2.17;;;;;;;17.39;54.88;102657.09;4943289;28;20027;-77
2022/01/30 18:07:20;;;;;;;6.65;2.15;;;;;;;17.38;54.96;102650.16;4975452;28;20019;-78
2022/01/30 18:09:45;;;;;;;6.53;2.25;;;;;;;17.38;55.02;102635.41;4958980;28;20030;-77
2022/01/30 18:12:12;;;;;;;5.63;2.17;;;;;;;17.37;54.97;102627.56;4976223;28;20050;-78
2022/01/30 18:14:39;;;;;;;5.88;2.30;;;;;;;17.37;55.10;102625.81;4974351;28;20023;-78
2022/01/30 18:17:06;;;;;;;6.95;2.30;;;;;;;17.37;55.14;102625.81;4958935;28;20023;-77
2022/01/30 18:19:31;;;;;;;6.43;2.33;;;;;;;17.36;55.22;102625.81;4975023;28;20027;-76
2022/01/30 18:21:57;;;;;;;4.57;2.17;;;;;;;17.36;55.04;102624.09;4958758;28;20026;-77
2022/01/30 18:24:23;;;;;;;4.30;2.10;;;;;;;17.35;55.32;102613.63;4974655;28;20095;-76
2022/01/30 18:26:49;;;;;;;6.63;2.28;;;;;;;17.35;55.28;102606.69;4958640;28;20038;-77
2022/01/30 18:29:16;;;;;;;6.38;2.80;;;;;;;17.35;55.37;102596.28;4958315;28;20416;-80
2022/01/30 18:31:47;;;;;;;11.00;3.17;;;;;;;17.35;55.38;102592.81;4959966;28;20065;-76
2022/01/30 18:34:16;;;;;;;11.77;3.95;;;;;;;17.34;55.44;102597.16;4992525;28;20035;-82
2022/01/30 18:43:02;;;;;;;16.47;5.03;;;;;;;17.38;56.05;102578.16;6093545;23;20616;31
2022/01/30 19:03:45;;;;;;;14.77;4.60;;;;;;;17.36;56.55;102504.38;5943500;23;20037;-82
2022/01/30 19:12:45;;;;;;;13.85;4.40;;;;;;;17.36;56.89;102465.34;5377599;23;20340;-77
2022/01/30 19:15:11;;;;;;;15.82;4.53;;;;;;;17.36;56.97;102449.72;4990114;28;20041;-80
2022/01/30 19:17:38;;;;;;;15.25;4.88;;;;;;;17.42;56.71;102448.94;5005591;28;20099;-81
2022/01/30 19:20:04;;;;;;;18.00;4.47;;;;;;;17.42;56.65;102430.72;5019526;28;20063;-79
2022/01/30 19:22:30;;;;;;;16.17;4.43;;;;;;;17.43;57.20;102412.53;5003416;28;20033;-80
2022/01/30 19:24:55;;;;;;;16.02;4.20;;;;;;;17.41;57.12;102401.22;5020700;28;20383;-81
2022/01/30 19:27:24;;;;;;;15.82;4.55;;;;;;;17.39;56.94;102402.91;5005376;28;20025;-80
2022/01/30 19:29:52;;;;;;;15.45;4.65;;;;;;;17.39;56.96;102376.91;5007661;28;20029;-80
2022/01/30 19:32:18;;;;;;;14.80;4.43;;;;;;;17.37;56.95;102376.00;5024785;28;20036;-79
2022/01/30 19:34:43;;;;;;;21.10;4.25;;;;;;;17.37;56.52;102373.41;5008190;28;20029;-80
2022/01/30 19:37:08;;;;;;;17.83;4.78;;;;;;;17.40;56.79;102367.41;4994260;28;20033;-80
2022/01/30 19:39:39;;;;;;;15.10;4.70;;;;;;;17.40;56.75;102355.25;5011371;28;20033;-80
2022/01/30 19:42:05;;;;;;;12.38;4.65;;;;;;;17.40;56.76;102343.97;5010650;28;20029;-78
2022/01/30 19:44:33;;;;;;;14.25;4.13;;;;;;;17.40;56.75;102326.63;5024326;28;20052;-80
2022/01/30 19:47:06;;;;;;;13.48;4.55;;;;;;;17.40;56.65;102300.59;5006849;28;20022;-82
2022/01/30 19:49:31;;;;;;;14.75;4.38;;;;;;;17.40;56.63;102303.19;5022551;28;20029;-79
2022/01/30 19:51:58;;;;;;;15.43;4.57;;;;;;;17.42;56.63;102292.78;5007354;28;20025;-81
2022/01/30 19:54:25;;;;;;;13.95;4.57;;;;;;;17.42;56.33;102304.09;5022499;28;20030;-81
2022/01/30 19:56:59;;;;;;;11.60;3.90;;;;;;;17.44;56.47;102281.56;5027968;28;20111;-82
2022/01/30 19:59:25;;;;;;;12.57;3.70;;;;;;;17.44;56.38;102267.66;5028986;28;20447;-81
2022/01/30 20:01:51;;;;;;;14.68;4.30;;;;;;;17.43;56.87;102240.78;5022463;28;20472;-82
2022/01/30 20:04:17;;;;;;;9.90;3.75;;;;;;;17.45;56.65;102226.06;5005447;28;20041;-81
2022/01/30 20:06:42;;;;;;;11.73;4.75;;;;;;;17.45;56.96;102220.84;5022564;28;20395;-81
2022/01/30 20:09:10;;;;;;;10.07;3.92;;;;;;;17.45;56.66;102233.88;5020261;28;20042;-80
2022/01/30 20:11:35;;;;;;;14.80;4.38;;;;;;;17.46;56.69;102230.44;5008475;28;20464;-80
2022/01/30 20:14:01;;;;;;;8.50;3.45;;;;;;;17.46;56.70;102216.50;5011860;28;20095;-81
2022/01/30 20:16:26;;;;;;;11.30;4.15;;;;;;;17.47;56.93;102234.75;5012766;28;20042;-82
2022/01/30 20:19:10;;;;;;;12.70;4.40;;;;;;;17.48;56.74;102253.84;5019479;28;20052;-83
2022/01/30 20:21:35;;;;;;;10.55;3.83;;;;;;;17.46;56.45;102252.94;5044081;28;20108;-81
2022/01/30 20:24:01;;;;;;;8.00;3.60;;;;;;;17.46;56.77;102246.03;5008891;28;20064;-81
2022/01/30 20:26:26;;;;;;;11.38;3.92;;;;;;;17.44;56.71;102226.94;5005228;28;20480;-81
2022/01/30 20:28:52;;;;;;;9.40;3.97;;;;;;;17.43;56.92;102217.34;5008741;28;20025;-81
2022/01/30 20:31:17;;;;;;;9.60;3.50;;;;;;;17.44;56.82;102205.22;5039854;28;20102;-82
2022/01/30 20:33:42;;;;;;;9.88;3.92;;;;;;;17.43;56.73;102191.34;5005843;28;20480;-81
2022/01/30 20:36:08;;;;;;;7.35;3.42;;;;;;;17.43;56.71;102199.13;5019098;28;20021;-80
2022/01/30 20:38:33;;;;;;;8.65;3.40;;;;;;;17.43;56.89;102193.06;5020281;28;20092;-81
2022/01/30 20:41:03;;;;;;;9.75;3.65;;;;;;;17.43;56.72;102185.25;5019564;28;20033;-81
2022/01/30 20:43:28;;;;;;;11.18;3.60;;;;;;;17.42;56.79;102178.28;5003868;28;20029;-81
2022/01/30 20:45:54;;;;;;;9.50;3.17;;;;;;;17.42;56.79;102165.28;5003545;28;20439;-81
2022/01/30 20:48:19;;;;;;;7.78;3.08;;;;;;;17.40;56.73;102156.63;5005243;28;20042;-80
2022/01/30 20:50:45;;;;;;;11.15;3.72;;;;;;;17.41;56.61;102163.53;5019455;28;20022;-80
2022/01/30 20:53:11;;;;;;;8.25;3.42;;;;;;;17.41;56.72;102160.94;5002754;28;20498;-81
2022/01/30 20:55:36;;;;;;;8.30;3.38;;;;;;;17.41;56.80;102145.34;5019207;28;20137;-80
2022/01/30 20:58:02;;;;;;;8.75;3.00;;;;;;;17.39;57.17;102121.88;5018225;28;20028;-80
2022/01/30 21:00:31;;;;;;;7.78;3.40;;;;;;;17.40;56.67;102109.78;5018931;28;20030;-80
2022/01/30 21:02:56;;;;;;;9.90;3.33;;;;;;;17.39;56.54;102100.19;5018962;28;20029;-79
2022/01/30 21:13:13;;;;;;;8.23;2.92;;;;;;;17.38;56.69;102109.75;6035776;23;20009;-81
2022/01/30 21:27:09;;;;;;;7.25;3.20;;;;;;;17.35;56.62;102034.22;5831103;23;20053;-81
2022/01/30 21:29:36;;;;;;;9.88;3.33;;;;;;;17.37;56.52;102027.31;5005419;28;20045;-82
2022/01/30 21:32:03;;;;;;;8.50;2.63;;;;;;;17.36;56.38;102036.00;5029483;28;20038;-82
2022/01/30 21:34:30;;;;;;;8.63;3.38;;;;;;;17.36;56.56;102038.59;4992428;28;20037;-82
2022/01/30 21:36:55;;;;;;;6.97;3.10;;;;;;;17.35;56.73;102044.63;4987753;28;20034;-81
2022/01/30 21:39:21;;;;;;;10.00;3.22;;;;;;;17.35;56.29;102029.03;5002378;28;20137;-81
2022/01/30 21:51:48;;;;;;;8.90;3.20;;;;;;;17.34;56.36;101915.44;5271263;23;20088;-85
2022/01/30 21:54:18;;;;;;;8.55;3.22;;;;;;;17.34;56.38;101897.22;5026853;28;20057;-83
2022/01/30 21:56:50;;;;;;;7.85;2.85;;;;;;;17.33;56.37;101885.03;5023819;28;20026;-82
2022/01/30 21:59:38;;;;;;;7.15;3.17;;;;;;;17.34;56.19;101863.38;4991331;28;20074;-82
2022/01/30 22:02:04;;;;;;;7.10;3.10;;;;;;;17.34;56.18;101855.59;4963725;28;20503;-80
2022/01/30 22:04:30;;;;;;;7.45;3.13;;;;;;;17.35;55.93;101833.03;4985238;28;20045;-80
2022/01/30 22:06:55;;;;;;;6.97;3.13;;;;;;;17.34;56.16;101819.16;4971531;28;20027;-80
2022/01/30 22:09:20;;;;;;;9.57;3.90;;;;;;;17.36;56.03;101795.75;4952044;28;20035;-79
2022/01/30 22:11:48;;;;;;;7.00;3.75;;;;;;;17.37;56.09;101780.13;4984261;28;20027;-79
2022/01/30 22:14:36;;;;;;;7.93;3.80;;;;;;;17.39;55.75;101772.34;4965542;28;20094;-82
2022/01/30 22:17:02;;;;;;;9.25;3.95;;;;;;;17.38;55.89;101770.63;4968209;28;20035;-80
2022/01/30 22:19:27;;;;;;;9.75;4.10;;;;;;;17.37;55.76;101768.88;4949828;28;20053;-80
2022/01/30 22:21:56;;;;;;;8.80;3.60;;;;;;;17.37;55.92;101768.88;4968216;28;20035;-80
2022/01/30 22:24:21;;;;;;;12.30;3.78;;;;;;;17.36;56.21;101759.34;4966423;28;20042;-80
2022/01/30 22:26:47;;;;;;;9.85;3.45;;;;;;;17.35;55.62;101747.16;4948154;28;20034;-80
2022/01/30 22:29:15;;;;;;;8.80;3.70;;;;;;;17.35;55.82;101739.38;4982044;28;20041;-80
2022/01/30 22:31:42;;;;;;;10.30;3.63;;;;;;;17.33;55.57;101739.34;5022853;28;20041;-80
2022/01/30 22:37:30;;;;;;;7.95;4.07;;;;;;;17.33;56.17;101752.34;5033425;28;20041;-80
2022/01/30 22:40:07;;;;;;;13.43;3.83;;;;;;;17.32;55.81;101726.34;5021083;28;20034;-80
2022/01/30 22:42:35;;;;;;;7.85;3.35;;;;;;;17.32;55.60;101706.41;5022724;28;20037;-80
2022/01/30 22:45:01;;;;;;;7.50;3.42;;;;;;;17.31;55.72;101696.88;5021429;28;20021;-80
2022/01/30 22:47:26;;;;;;;10.07;3.58;;;;;;;17.30;55.52;101674.31;5020599;28;20518;-80
2022/01/30 22:49:52;;;;;;;10.25;3.35;;;;;;;17.31;55.74;101647.44;5020543;28;20159;-81
2022/01/30 22:52:18;;;;;;;8.88;3.25;;;;;;;17.29;55.33;101636.16;4999169;28;20057;-80
2022/01/30 22:54:44;;;;;;;8.13;3.28;;;;;;;17.30;55.47;101619.69;5001925;28;20026;-80
2022/01/30 22:57:10;;;;;;;6.88;3.03;;;;;;;17.30;55.26;101613.63;4984856;28;20101;-80
2022/01/30 22:59:36;;;;;;;8.73;3.55;;;;;;;17.29;55.12;101623.16;4986394;28;20053;-81
2022/01/30 23:02:04;;;;;;;7.25;3.35;;;;;;;17.30;55.18;101640.50;5007368;28;20061;-81